Time;durP1;ratioP1;P1;durP2;ratioP2;P2;SDS_P1;SDS_P2;PMS_P1;PMS_P2;Temp;Humidity;BMP_temperature;BMP_pressure;BME280_temperature;BME280_humidity;BME280_pressure;Samples;Min_cycle;Max_cycle;Signal;HPM_P1;HPM_P2
2021/10/16 00:00:34;;;;;;;23.27;19.46;;;;;;;8.75;60.46;101516.80;450150;116;922746;-75
2021/10/16 00:01:39;;;;;;;25.94;18.98;;;;;;;8.76;60.41;101518.50;446814;117;923175;-74
2021/10/16 00:02:43;;;;;;;21.54;19.08;;;;;;;8.77;60.40;101518.30;447431;116;923236;-75
2021/10/16 00:03:47;;;;;;;19.85;18.16;;;;;;;8.77;60.36;101510.14;448329;117;930715;-75
2021/10/16 00:04:50;;;;;;;20.16;17.96;;;;;;;8.78;60.30;101513.70;444533;117;930578;-75
2021/10/16 00:05:53;;;;;;;21.28;19.10;;;;;;;8.77;60.28;101515.58;450499;114;930631;-75
2021/10/16 00:06:58;;;;;;;21.06;18.86;;;;;;;8.78;60.24;101508.27;444948;116;923371;-75
2021/10/16 00:08:02;;;;;;;26.19;19.40;;;;;;;8.79;60.26;101509.97;447100;116;922491;-75
2021/10/16 00:09:05;;;;;;;21.53;19.31;;;;;;;8.79;60.22;101513.53;452990;115;922698;-77
2021/10/16 00:10:10;;;;;;;19.35;17.28;;;;;;;8.81;60.21;101512.52;444252;117;930433;-77
2021/10/16 00:11:13;;;;;;;22.50;17.47;;;;;;;8.82;60.18;101500.61;443680;116;922621;-76
2021/10/16 00:12:17;;;;;;;22.38;18.39;;;;;;;8.83;60.12;101505.84;451471;116;930606;-76
2021/10/16 00:13:20;;;;;;;19.26;17.00;;;;;;;8.83;60.05;101510.44;452626;115;922649;-76
2021/10/16 00:14:24;;;;;;;22.70;18.52;;;;;;;8.84;60.06;101509.42;451504;115;922577;-75
2021/10/16 00:15:28;;;;;;;19.29;16.07;;;;;;;8.84;60.03;101509.42;443975;116;922755;-75
2021/10/16 00:16:32;;;;;;;20.92;16.01;;;;;;;8.83;59.99;101505.84;441423;118;930610;-76
2021/10/16 00:17:36;;;;;;;18.03;16.05;;;;;;;8.85;59.96;101513.84;450836;115;930850;-74
2021/10/16 00:18:39;;;;;;;17.50;15.54;;;;;;;8.86;59.96;101510.09;445634;117;923062;-76
2021/10/16 00:19:42;;;;;;;16.60;14.99;;;;;;;8.87;59.89;101509.08;446183;116;922632;-76
2021/10/16 00:20:46;;;;;;;17.00;15.34;;;;;;;8.87;59.84;101509.08;443517;117;922656;-76
2021/10/16 00:21:50;;;;;;;16.87;15.01;;;;;;;8.88;59.73;101499.86;444570;116;922556;-76
2021/10/16 00:22:53;;;;;;;17.66;16.11;;;;;;;8.87;59.64;101506.36;445316;116;922613;-75
2021/10/16 00:23:56;;;;;;;16.09;14.60;;;;;;;8.87;59.59;101509.08;446680;116;922643;-75
2021/10/16 00:24:59;;;;;;;17.51;15.56;;;;;;;8.86;59.54;101502.78;444899;116;922547;-77
2021/10/16 00:26:03;;;;;;;17.35;14.56;;;;;;;8.86;59.54;101504.66;449009;115;923131;-76
2021/10/16 00:27:06;;;;;;;16.71;14.89;;;;;;;8.87;59.56;101503.63;452697;115;922575;-75
2021/10/16 00:28:10;;;;;;;15.71;14.12;;;;;;;8.88;59.48;101499.86;443723;118;922659;-75
2021/10/16 00:29:13;;;;;;;16.24;14.49;;;;;;;8.87;59.44;101495.48;453047;116;922810;-75
2021/10/16 00:30:18;;;;;;;17.94;15.14;;;;;;;8.87;59.47;101490.89;453741;114;922650;-76
2021/10/16 00:31:21;;;;;;;14.90;13.75;;;;;;;8.87;59.51;101482.73;460056;113;923055;-76
2021/10/16 00:32:25;;;;;;;23.11;14.99;;;;;;;8.87;59.44;101490.03;461203;113;922675;-76
2021/10/16 00:33:28;;;;;;;18.09;14.69;;;;;;;8.85;59.39;101490.21;460824;114;930603;-75
2021/10/16 00:34:32;;;;;;;19.21;16.27;;;;;;;8.85;59.38;101489.36;450332;115;922787;-75
2021/10/16 00:35:35;;;;;;;17.52;15.06;;;;;;;8.83;59.39;101489.53;461039;113;922646;-76
2021/10/16 00:36:39;;;;;;;16.58;14.94;;;;;;;8.83;59.43;101488.69;461086;113;923166;-75
2021/10/16 00:37:43;;;;;;;17.23;15.50;;;;;;;8.81;59.48;101493.48;460831;114;922798;-75
2021/10/16 00:38:46;;;;;;;15.88;14.43;;;;;;;8.80;59.48;101492.62;461066;114;923104;-75
2021/10/16 00:39:52;;;;;;;17.98;15.59;;;;;;;8.78;59.44;101495.52;460426;113;923037;-75
2021/10/16 00:41:04;;;;;;;16.57;15.09;;;;;;;8.88;59.55;101494.42;482148;107;926158;-75
2021/10/16 00:42:07;;;;;;;17.34;14.90;;;;;;;8.74;59.58;101486.04;481576;109;922525;-76
2021/10/16 00:43:11;;;;;;;17.36;15.44;;;;;;;8.72;59.65;101487.23;481213;108;922473;-75
2021/10/16 00:44:22;;;;;;;17.81;16.09;;;;;;;8.70;59.77;101483.88;479479;108;922482;-75
2021/10/16 00:45:25;;;;;;;16.12;14.57;;;;;;;8.70;59.83;101478.44;472815;110;930559;-77
2021/10/16 00:46:30;;;;;;;15.89;14.37;;;;;;;8.69;59.93;101488.46;471812;108;922763;-76
2021/10/16 00:47:33;;;;;;;17.56;14.96;;;;;;;8.69;59.84;101491.17;477649;108;922499;-76
2021/10/16 00:48:37;;;;;;;17.53;15.64;;;;;;;8.68;59.85;101486.77;476494;108;922755;-75
2021/10/16 00:49:40;;;;;;;19.51;16.98;;;;;;;8.66;59.78;101488.80;479145;108;922632;-76
2021/10/16 00:50:44;;;;;;;18.42;15.78;;;;;;;8.63;59.86;101494.61;478726;108;922999;-76
2021/10/16 00:51:47;;;;;;;17.31;15.84;;;;;;;8.59;59.90;101493.29;480259;108;930595;-76
2021/10/16 00:52:51;;;;;;;17.22;15.45;;;;;;;8.57;59.92;101498.05;479462;108;923085;-75
2021/10/16 00:53:55;;;;;;;17.27;15.54;;;;;;;8.55;60.12;101488.36;478984;108;930470;-74
2021/10/16 00:54:58;;;;;;;17.66;15.51;;;;;;;8.54;60.27;101495.70;478857;108;930518;-76
2021/10/16 00:56:02;;;;;;;17.65;15.55;;;;;;;8.53;60.32;101485.84;479700;108;930554;-76
2021/10/16 00:57:08;;;;;;;18.87;15.76;;;;;;;8.54;60.27;101495.70;480290;108;923726;-76
2021/10/16 00:58:12;;;;;;;18.57;16.59;;;;;;;8.52;60.23;101484.15;474958;110;930666;-74
2021/10/16 00:59:17;;;;;;;17.82;16.02;;;;;;;8.51;60.24;101487.89;474864;108;923421;-75
2021/10/16 01:00:22;;;;;;;17.33;15.71;;;;;;;8.49;60.20;101481.77;478462;108;922610;-75
2021/10/16 01:01:26;;;;;;;18.49;16.52;;;;;;;8.47;60.20;101486.56;477584;108;922657;-73
2021/10/16 01:02:31;;;;;;;18.82;15.82;;;;;;;8.44;60.27;101489.62;478993;108;922574;-75
2021/10/16 01:03:34;;;;;;;17.45;15.75;;;;;;;8.41;60.33;101484.56;476242;108;922482;-74
2021/10/16 01:04:38;;;;;;;16.26;14.67;;;;;;;8.39;60.51;101486.59;478074;108;922735;-76
2021/10/16 01:05:43;;;;;;;17.19;15.39;;;;;;;8.38;60.66;101486.80;477493;108;922740;-74
2021/10/16 01:06:47;;;;;;;15.27;13.82;;;;;;;8.36;60.75;101478.81;476145;108;922477;-76
2021/10/16 01:07:50;;;;;;;19.39;16.66;;;;;;;8.36;60.87;101476.09;476925;108;922607;-75
2021/10/16 01:08:55;;;;;;;16.62;15.06;;;;;;;8.37;60.89;101480.52;476627;108;923081;-75
2021/10/16 01:09:59;;;;;;;18.17;15.15;;;;;;;8.38;60.88;101480.31;477810;108;923167;-75
2021/10/16 01:11:03;;;;;;;17.28;15.58;;;;;;;8.38;60.86;101480.31;474822;108;923158;-74
2021/10/16 01:12:08;;;;;;;17.57;14.68;;;;;;;8.39;60.89;101486.59;477907;108;922707;-76
2021/10/16 01:13:12;;;;;;;15.92;14.32;;;;;;;8.38;60.99;101478.64;465064;112;923026;-75
2021/10/16 01:14:16;;;;;;;16.28;14.05;;;;;;;8.38;61.04;101477.59;467847;111;922824;-76
2021/10/16 01:15:22;;;;;;;15.89;14.36;;;;;;;8.40;61.03;101482.86;468133;112;922531;-75
2021/10/16 01:16:26;;;;;;;16.09;14.53;;;;;;;8.42;61.02;101480.82;461858;112;922534;-74
2021/10/16 01:17:33;;;;;;;15.09;13.76;;;;;;;8.43;60.93;101478.95;469123;111;923139;-75
2021/10/16 01:18:36;;;;;;;15.64;14.18;;;;;;;8.45;60.96;101474.16;465881;113;923051;-76
2021/10/16 01:19:42;;;;;;;16.43;14.84;;;;;;;8.46;60.99;101470.42;461639;113;922958;-74
2021/10/16 01:20:49;;;;;;;14.68;13.17;;;;;;;8.48;60.98;101473.82;464304;113;930480;-76
2021/10/16 01:21:55;;;;;;;14.85;13.46;;;;;;;8.49;60.97;101473.63;465407;112;922551;-74
2021/10/16 01:22:59;;;;;;;17.59;14.22;;;;;;;8.51;60.90;101471.58;456687;112;923132;-75
2021/10/16 01:24:04;;;;;;;14.89;13.61;;;;;;;8.52;60.91;101478.72;460760;113;922538;-75
2021/10/16 01:25:13;;;;;;;15.94;14.01;;;;;;;8.54;60.87;101473.95;462653;113;922718;-75
2021/10/16 01:26:18;;;;;;;15.19;13.64;;;;;;;8.55;60.83;101475.62;462579;112;922977;-73
2021/10/16 01:27:21;;;;;;;14.68;13.29;;;;;;;8.57;60.83;101470.02;462496;113;930471;-75
2021/10/16 01:28:25;;;;;;;16.21;14.69;;;;;;;8.59;60.81;101463.39;461965;113;922417;-74
2021/10/16 01:29:30;;;;;;;17.19;15.45;;;;;;;8.61;60.72;101464.03;462001;111;930392;-76
2021/10/16 01:30:34;;;;;;;15.82;14.26;;;;;;;8.63;60.68;101463.86;461832;113;922636;-74
2021/10/16 01:31:38;;;;;;;16.36;13.43;;;;;;;8.63;60.64;101459.27;460350;113;922568;-76
2021/10/16 01:32:42;;;;;;;15.61;14.12;;;;;;;8.64;60.53;101458.25;465936;112;922529;-75
2021/10/16 01:33:46;;;;;;;14.76;13.57;;;;;;;8.65;60.45;101453.66;466870;112;922577;-76
2021/10/16 01:34:49;;;;;;;15.48;14.06;;;;;;;8.66;60.45;101448.02;449216;115;922744;-75
2021/10/16 01:36:00;;;;;;;16.20;14.43;;;;;;;8.67;60.37;101451.59;471436;110;922687;-74
2021/10/16 01:37:04;;;;;;;16.50;14.68;;;;;;;8.67;60.33;101452.44;470255;110;922728;-73
2021/10/16 01:38:09;;;;;;;15.87;14.32;;;;;;;8.66;60.23;101456.17;469295;108;923060;-75
2021/10/16 01:39:13;;;;;;;15.94;14.46;;;;;;;8.66;60.19;101456.17;479723;108;922695;-75
2021/10/16 01:40:19;;;;;;;17.74;14.37;;;;;;;8.66;60.11;101456.17;477967;108;922804;-75
2021/10/16 01:41:23;;;;;;;16.25;14.27;;;;;;;8.66;60.12;101455.33;478039;108;922487;-76
2021/10/16 01:42:26;;;;;;;16.91;15.26;;;;;;;8.67;60.08;101449.72;478047;108;922839;-74
2021/10/16 01:43:32;;;;;;;16.18;14.84;;;;;;;8.66;60.06;101461.61;477847;108;930717;-75
2021/10/16 01:44:35;;;;;;;15.41;13.89;;;;;;;8.67;59.97;101452.44;477423;108;922541;-75
2021/10/16 01:45:39;;;;;;;16.09;14.52;;;;;;;8.68;59.97;101454.14;476685;108;922721;-75
2021/10/16 01:46:44;;;;;;;19.56;14.35;;;;;;;8.69;59.97;101449.55;478018;108;930375;-75
2021/10/16 01:47:53;;;;;;;15.72;14.21;;;;;;;8.70;59.90;101454.81;477062;108;923015;-75
2021/10/16 01:48:59;;;;;;;15.29;13.73;;;;;;;8.70;59.80;101452.09;477415;108;922572;-74
2021/10/16 01:50:03;;;;;;;16.58;15.05;;;;;;;8.70;59.73;101452.09;476144;108;922515;-75
2021/10/16 01:51:08;;;;;;;17.37;14.23;;;;;;;8.70;59.72;101449.38;469727;110;922739;-75
2021/10/16 01:52:13;;;;;;;15.44;14.17;;;;;;;8.71;59.69;101444.78;468430;110;923188;-75
2021/10/16 01:53:19;;;;;;;15.33;13.73;;;;;;;8.70;59.65;101441.22;475678;108;923027;-75
2021/10/16 01:54:28;;;;;;;15.21;13.78;;;;;;;8.69;59.62;101439.52;475553;108;922532;-75
2021/10/16 01:55:32;;;;;;;14.82;13.32;;;;;;;8.70;59.61;101440.37;475580;108;922644;-75
2021/10/16 01:56:36;;;;;;;14.84;13.58;;;;;;;8.69;59.52;101436.80;475240;108;923039;-74
2021/10/16 01:57:39;;;;;;;14.19;12.93;;;;;;;8.69;59.49;101436.80;475937;108;930297;-75
2021/10/16 01:58:43;;;;;;;13.84;12.68;;;;;;;8.68;59.51;101432.39;477024;108;930618;-76
2021/10/16 01:59:48;;;;;;;13.99;12.66;;;;;;;8.68;59.51;101434.26;477009;109;923511;-76
2021/10/16 02:01:11;;;;;;;15.03;13.55;;;;;;;8.67;59.51;101429.84;478522;108;922598;-75
2021/10/16 02:02:15;;;;;;;13.88;12.58;;;;;;;8.66;59.51;101425.42;476837;108;922424;-74
2021/10/16 02:03:21;;;;;;;14.97;12.69;;;;;;;8.66;59.56;101422.70;476429;108;923100;-76
2021/10/16 02:04:33;;;;;;;14.78;12.93;;;;;;;8.66;59.51;101419.98;477017;108;923064;-75
2021/10/16 02:05:42;;;;;;;14.22;12.78;;;;;;;8.65;59.53;101432.77;477559;108;923099;-75
2021/10/16 02:06:48;;;;;;;13.01;11.72;;;;;;;8.67;59.52;101424.41;470291;108;923189;-75
2021/10/16 02:07:52;;;;;;;13.99;12.68;;;;;;;8.66;59.57;101431.70;476293;108;923014;-74
2021/10/16 02:08:56;;;;;;;13.86;12.65;;;;;;;8.67;59.61;101424.41;477871;108;930412;-74
2021/10/16 02:09:59;;;;;;;13.48;12.39;;;;;;;8.68;59.55;101431.54;474468;108;922533;-74
2021/10/16 02:11:02;;;;;;;13.41;12.13;;;;;;;8.68;59.45;101426.95;474590;108;922989;-74
2021/10/16 02:12:08;;;;;;;13.14;12.01;;;;;;;8.68;59.43;101421.52;475968;108;923015;-75
2021/10/16 02:13:13;;;;;;;13.57;12.31;;;;;;;8.68;59.35;101418.80;476642;108;922948;-75
2021/10/16 02:14:19;;;;;;;13.85;12.42;;;;;;;8.68;59.34;101417.95;467938;108;922721;-74
2021/10/16 02:15:24;;;;;;;14.18;12.53;;;;;;;8.67;59.26;101422.53;475484;108;923397;-75
2021/10/16 02:16:34;;;;;;;13.59;12.32;;;;;;;8.67;59.26;101425.25;472920;108;922928;-76
2021/10/16 02:17:39;;;;;;;14.12;12.23;;;;;;;8.68;59.27;101426.95;474626;108;922784;-76
2021/10/16 02:18:44;;;;;;;15.27;12.75;;;;;;;8.68;59.27;101435.10;477152;108;922546;-74
2021/10/16 02:19:48;;;;;;;13.05;11.76;;;;;;;8.68;59.32;101429.67;470416;109;922655;-75
2021/10/16 02:20:53;;;;;;;13.12;11.98;;;;;;;8.69;59.32;101430.52;471289;108;922672;-76
2021/10/16 02:21:58;;;;;;;14.24;12.85;;;;;;;8.69;59.30;101431.37;478319;108;922905;-75
2021/10/16 02:23:02;;;;;;;13.42;12.11;;;;;;;8.69;59.25;101434.08;470342;110;923209;-75
2021/10/16 02:24:07;;;;;;;12.85;11.77;;;;;;;8.68;59.30;101437.83;470277;108;922624;-75
2021/10/16 02:25:13;;;;;;;12.68;11.38;;;;;;;8.67;59.28;101433.41;478735;108;923168;-75
2021/10/16 02:26:17;;;;;;;13.61;12.28;;;;;;;8.68;59.28;101434.26;478547;108;922527;-76
2021/10/16 02:27:23;;;;;;;13.08;11.58;;;;;;;8.68;59.26;101434.26;476666;108;922647;-76
2021/10/16 02:28:27;;;;;;;13.18;11.69;;;;;;;8.67;59.24;101427.97;478025;108;922631;-76
2021/10/16 02:29:35;;;;;;;13.69;12.52;;;;;;;8.67;59.26;101433.41;476783;108;930439;-75
2021/10/16 02:30:42;;;;;;;13.72;12.44;;;;;;;8.66;59.30;101425.42;476917;108;922970;-73
2021/10/16 02:31:45;;;;;;;12.79;11.66;;;;;;;8.66;59.28;101431.70;477930;108;922970;-75
2021/10/16 02:32:49;;;;;;;14.99;13.55;;;;;;;8.67;59.27;101424.41;477469;108;922665;-75
2021/10/16 02:33:53;;;;;;;13.89;12.69;;;;;;;8.67;59.24;101421.69;477313;108;922606;-74
2021/10/16 02:34:57;;;;;;;13.15;11.92;;;;;;;8.66;59.22;101419.98;478065;108;922552;-74
2021/10/16 02:36:01;;;;;;;12.41;11.34;;;;;;;8.67;59.21;101413.53;474931;108;923130;-74
2021/10/16 02:37:04;;;;;;;13.62;12.34;;;;;;;8.67;59.23;101408.94;476715;108;922605;-74
2021/10/16 02:38:08;;;;;;;13.55;12.48;;;;;;;8.68;59.16;101412.51;468599;110;930704;-76
2021/10/16 02:39:12;;;;;;;13.42;12.22;;;;;;;8.67;59.13;101410.81;468444;108;930448;-74
2021/10/16 02:40:17;;;;;;;14.06;12.88;;;;;;;8.66;59.12;101417.27;477251;108;923801;-75
2021/10/16 02:41:20;;;;;;;12.59;11.49;;;;;;;8.65;59.06;101424.61;477542;108;923003;-74
2021/10/16 02:42:24;;;;;;;13.43;12.33;;;;;;;8.65;59.13;101418.33;472800;110;923095;-74
2021/10/16 02:43:29;;;;;;;17.91;12.59;;;;;;;8.64;59.16;101413.91;473018;108;922528;-76
2021/10/16 02:44:33;;;;;;;13.78;12.42;;;;;;;8.63;59.20;101418.50;478739;108;922636;-75
2021/10/16 02:45:36;;;;;;;13.40;12.29;;;;;;;8.64;59.18;101412.03;479585;108;922619;-75
2021/10/16 02:46:40;;;;;;;12.76;11.65;;;;;;;8.64;59.17;101420.19;477249;108;922522;-75
2021/10/16 02:47:44;;;;;;;13.31;11.62;;;;;;;8.64;59.21;101409.31;478555;108;922473;-75
2021/10/16 02:48:48;;;;;;;12.86;11.64;;;;;;;8.65;59.20;101410.17;479044;108;930462;-76
2021/10/16 02:49:51;;;;;;;12.91;11.42;;;;;;;8.65;59.15;101411.02;479073;108;922672;-75
2021/10/16 02:50:55;;;;;;;12.19;11.12;;;;;;;8.65;59.15;101405.58;478046;108;924509;-74
2021/10/16 02:51:59;;;;;;;12.60;11.41;;;;;;;8.65;59.12;101405.58;477281;108;922554;-75
2021/10/16 02:53:02;;;;;;;13.41;11.94;;;;;;;8.65;59.08;101405.58;468713;110;922996;-73
2021/10/16 02:54:06;;;;;;;11.82;10.66;;;;;;;8.66;59.06;101403.67;470265;108;923061;-76
2021/10/16 02:55:10;;;;;;;13.72;12.47;;;;;;;8.65;59.04;101400.14;478169;108;922584;-75
2021/10/16 02:56:15;;;;;;;12.44;11.26;;;;;;;8.65;59.06;101393.86;475450;108;930367;-76
2021/10/16 02:57:19;;;;;;;12.79;10.58;;;;;;;8.65;59.01;101391.14;477758;108;923273;-75
2021/10/16 02:58:22;;;;;;;13.75;12.27;;;;;;;8.65;58.83;101391.98;476785;108;930370;-75
2021/10/16 02:59:26;;;;;;;11.96;10.91;;;;;;;8.65;59.00;101389.27;477040;108;922562;-73
2021/10/16 03:00:31;;;;;;;12.32;11.12;;;;;;;8.66;58.94;101387.36;477718;108;923115;-75
2021/10/16 03:01:37;;;;;;;12.34;11.26;;;;;;;8.66;58.97;101390.93;477129;108;923086;-76
2021/10/16 03:02:41;;;;;;;12.78;11.55;;;;;;;8.67;58.93;101392.63;477330;108;922474;-75
2021/10/16 03:03:46;;;;;;;12.60;11.18;;;;;;;8.68;58.90;101393.48;474812;108;922667;-76
2021/10/16 03:04:50;;;;;;;12.41;11.22;;;;;;;8.69;58.95;101389.73;479255;108;922853;-76
2021/10/16 03:05:53;;;;;;;12.94;11.86;;;;;;;8.68;58.90;101378.02;467244;110;930347;-75
2021/10/16 03:06:56;;;;;;;11.84;10.59;;;;;;;8.70;58.86;101388.71;465886;110;923459;-76
2021/10/16 03:08:00;;;;;;;15.01;11.46;;;;;;;8.71;58.87;101382.25;479082;108;922572;-76
2021/10/16 03:09:05;;;;;;;11.95;10.86;;;;;;;8.70;58.87;101375.97;470504;110;922985;-75
2021/10/16 03:10:09;;;;;;;12.19;11.06;;;;;;;8.70;58.84;101375.97;471095;110;930312;-75
2021/10/16 03:11:13;;;;;;;12.46;11.33;;;;;;;8.71;58.85;101379.53;478142;108;922738;-75
2021/10/16 03:12:16;;;;;;;11.76;10.71;;;;;;;8.72;58.84;101386.64;479917;108;922587;-75
2021/10/16 03:13:22;;;;;;;12.58;11.29;;;;;;;8.72;58.83;101378.48;477791;108;922918;-76
2021/10/16 03:14:26;;;;;;;13.05;11.46;;;;;;;8.73;58.79;101381.02;468976;110;923380;-75
2021/10/16 03:15:30;;;;;;;12.98;11.74;;;;;;;8.72;58.80;101371.17;461497;110;922635;-73
2021/10/16 03:16:37;;;;;;;12.01;10.86;;;;;;;8.73;58.81;101369.30;469740;110;923173;-75
2021/10/16 03:17:43;;;;;;;12.51;11.20;;;;;;;8.75;58.78;101369.97;476566;108;922585;-75
2021/10/16 03:18:48;;;;;;;11.63;10.52;;;;;;;8.75;58.72;101372.69;478233;108;922560;-76
2021/10/16 03:19:51;;;;;;;12.25;10.95;;;;;;;8.76;58.65;101368.95;477502;108;930329;-74
2021/10/16 03:20:54;;;;;;;12.77;10.98;;;;;;;8.76;58.65;101363.52;476390;108;922571;-76
2021/10/16 03:21:58;;;;;;;12.28;11.11;;;;;;;8.78;58.63;101373.16;478004;108;922850;-75
2021/10/16 03:23:07;;;;;;;11.48;10.39;;;;;;;8.78;58.59;101364.16;476350;108;923070;-74
2021/10/16 03:24:11;;;;;;;12.12;10.96;;;;;;;8.79;58.54;101361.26;468578;110;922836;-76
2021/10/16 03:25:14;;;;;;;15.68;10.84;;;;;;;8.79;58.47;101361.26;468290;110;923079;-75
2021/10/16 03:26:18;;;;;;;13.99;10.74;;;;;;;8.81;58.47;101357.52;478345;108;930368;-74
2021/10/16 03:27:22;;;;;;;10.84;9.78;;;;;;;8.81;58.47;101354.80;479688;108;922686;-76
2021/10/16 03:28:25;;;;;;;12.64;11.26;;;;;;;8.81;58.43;101360.23;479675;108;930417;-76
2021/10/16 03:29:29;;;;;;;12.38;11.01;;;;;;;8.81;58.33;101354.80;479990;108;922863;-73
2021/10/16 03:30:33;;;;;;;11.85;10.74;;;;;;;8.82;58.27;101361.93;479308;108;923062;-74
2021/10/16 03:31:36;;;;;;;12.11;10.90;;;;;;;8.78;58.26;101359.56;479880;108;923271;-74
2021/10/16 03:32:40;;;;;;;11.97;10.74;;;;;;;8.79;58.23;101360.41;478485;108;930462;-76
2021/10/16 03:33:43;;;;;;;12.84;11.46;;;;;;;8.78;58.23;101361.44;479034;108;922955;-75
2021/10/16 03:34:47;;;;;;;12.82;10.07;;;;;;;8.77;58.30;101365.17;478354;108;923426;-74
2021/10/16 03:35:50;;;;;;;12.07;11.05;;;;;;;8.77;58.35;101365.17;470203;110;922985;-75
2021/10/16 03:36:54;;;;;;;13.07;11.19;;;;;;;8.75;58.36;101362.66;470878;108;923019;-74
2021/10/16 03:37:57;;;;;;;12.44;11.06;;;;;;;8.74;58.41;101358.25;477036;108;922462;-74
2021/10/16 03:39:01;;;;;;;13.41;11.14;;;;;;;8.74;58.40;101360.97;478225;108;923008;-76
2021/10/16 03:40:05;;;;;;;12.24;10.56;;;;;;;8.74;58.39;101360.97;478883;108;924632;-75
2021/10/16 03:41:10;;;;;;;12.44;11.34;;;;;;;8.74;58.37;101360.97;476774;108;922597;-75
2021/10/16 03:42:14;;;;;;;12.55;11.09;;;;;;;8.74;58.38;101366.41;477642;108;922452;-75
2021/10/16 03:43:19;;;;;;;11.24;10.24;;;;;;;8.75;58.38;101361.81;477260;108;922892;-76
2021/10/16 03:44:24;;;;;;;11.79;10.72;;;;;;;8.74;58.41;101369.13;477522;108;922697;-75
2021/10/16 03:45:27;;;;;;;14.25;11.07;;;;;;;8.74;58.41;101374.56;478279;108;922720;-74
2021/10/16 03:46:32;;;;;;;12.62;11.29;;;;;;;8.75;58.39;101368.10;476245;108;923120;-75
2021/10/16 03:47:36;;;;;;;12.33;11.14;;;;;;;8.75;58.39;101369.97;476317;108;930471;-74
2021/10/16 03:48:39;;;;;;;11.74;10.48;;;;;;;8.75;58.28;101368.10;479296;108;930477;-74
2021/10/16 03:49:43;;;;;;;13.41;11.38;;;;;;;8.74;58.31;101363.69;479333;108;930442;-74
2021/10/16 03:50:48;;;;;;;13.33;11.94;;;;;;;8.74;58.35;101374.56;469615;110;923187;-76
2021/10/16 03:51:52;;;;;;;12.05;10.74;;;;;;;8.75;58.36;101367.25;469447;108;923375;-74
2021/10/16 03:52:56;;;;;;;12.94;11.68;;;;;;;8.74;58.31;101365.56;479211;108;922564;-75
2021/10/16 03:54:01;;;;;;;11.88;10.80;;;;;;;8.72;58.31;101373.89;478441;108;930312;-75
2021/10/16 03:55:06;;;;;;;12.38;11.24;;;;;;;8.72;58.35;101373.89;480077;108;922505;-75
2021/10/16 03:56:10;;;;;;;12.18;11.11;;;;;;;8.73;58.32;101374.73;479261;108;922843;-75
2021/10/16 03:57:13;;;;;;;16.07;11.91;;;;;;;8.72;58.31;101360.30;478570;108;930347;-75
2021/10/16 03:58:17;;;;;;;13.33;11.37;;;;;;;8.72;58.35;101371.17;478291;108;930456;-77
2021/10/16 03:59:22;;;;;;;12.34;11.21;;;;;;;8.73;58.29;101366.58;477541;108;922490;-74
2021/10/16 04:00:27;;;;;;;12.99;10.78;;;;;;;8.73;58.28;101361.99;478292;108;930423;-72
2021/10/16 04:01:33;;;;;;;13.10;11.09;;;;;;;8.73;58.25;101364.70;477225;107;922677;-75
2021/10/16 04:02:37;;;;;;;12.21;11.03;;;;;;;8.74;58.22;101360.13;476940;108;922949;-73
2021/10/16 04:03:41;;;;;;;11.99;10.84;;;;;;;8.75;58.21;101361.81;477126;108;930427;-74
2021/10/16 04:04:45;;;;;;;12.05;10.70;;;;;;;8.75;58.19;101368.10;478130;108;922983;-72
2021/10/16 04:05:49;;;;;;;11.75;10.56;;;;;;;8.77;58.17;101360.59;477446;108;923183;-75
2021/10/16 04:06:53;;;;;;;14.30;11.15;;;;;;;8.77;58.14;101363.30;477316;108;922856;-75
2021/10/16 04:07:56;;;;;;;12.69;10.71;;;;;;;8.79;58.02;101366.70;476435;108;930603;-76
2021/10/16 04:08:59;;;;;;;12.76;11.18;;;;;;;8.79;57.98;101368.56;477535;108;930238;-76
2021/10/16 04:10:03;;;;;;;12.36;11.19;;;;;;;8.78;57.89;101367.72;476723;108;922503;-75
2021/10/16 04:11:07;;;;;;;12.86;10.89;;;;;;;8.78;57.82;101369.59;475459;108;923052;-74
2021/10/16 04:12:11;;;;;;;12.53;11.29;;;;;;;8.78;57.79;101369.59;478283;108;922468;-75
2021/10/16 04:13:14;;;;;;;12.29;11.29;;;;;;;8.77;57.84;101367.89;477534;108;930307;-75
2021/10/16 04:14:20;;;;;;;12.71;11.37;;;;;;;8.77;57.82;101368.75;480728;108;922725;-76
2021/10/16 04:15:24;;;;;;;11.91;10.78;;;;;;;8.77;57.80;101371.46;481420;108;923021;-76
2021/10/16 04:16:27;;;;;;;13.21;11.94;;;;;;;8.76;57.78;101375.23;479427;108;930341;-75
2021/10/16 04:17:31;;;;;;;13.51;11.24;;;;;;;8.75;57.80;101368.10;479879;108;923018;-75
2021/10/16 04:18:36;;;;;;;11.66;10.54;;;;;;;8.75;57.83;101368.10;479072;108;923294;-76
2021/10/16 04:19:39;;;;;;;12.37;11.15;;;;;;;8.75;57.76;101378.98;478369;108;922616;-75
2021/10/16 04:20:44;;;;;;;14.80;12.06;;;;;;;8.74;57.84;101384.59;478856;108;922653;-75
2021/10/16 04:21:47;;;;;;;14.93;11.68;;;;;;;8.73;57.92;101380.17;477720;108;930409;-75
2021/10/16 04:22:51;;;;;;;12.79;10.96;;;;;;;8.72;57.89;101386.64;478798;108;922984;-74
2021/10/16 04:23:54;;;;;;;12.96;11.78;;;;;;;8.68;58.10;101386.17;478184;108;930316;-75
2021/10/16 04:24:58;;;;;;;13.49;12.09;;;;;;;8.68;58.10;101386.17;478747;108;930612;-76
2021/10/16 04:26:02;;;;;;;14.02;12.39;;;;;;;8.65;58.01;101378.39;478603;108;922800;-76
2021/10/16 04:27:05;;;;;;;12.66;11.37;;;;;;;8.62;58.12;101378.73;477396;108;922548;-75
2021/10/16 04:28:10;;;;;;;12.82;11.69;;;;;;;8.60;58.19;101375.34;476213;108;930330;-76
2021/10/16 04:29:15;;;;;;;12.44;11.19;;;;;;;8.59;58.28;101373.69;476287;108;923498;-75
2021/10/16 04:30:22;;;;;;;12.05;10.74;;;;;;;8.58;58.23;101368.42;475749;108;922701;-76
2021/10/16 04:31:25;;;;;;;13.07;11.35;;;;;;;8.57;58.19;101380.31;476704;108;922551;-73
2021/10/16 04:32:29;;;;;;;12.08;10.99;;;;;;;8.57;58.13;101380.31;475449;108;922589;-73
2021/10/16 04:33:33;;;;;;;11.84;10.69;;;;;;;8.55;58.09;101372.33;475753;108;922498;-76
2021/10/16 04:34:37;;;;;;;12.64;11.17;;;;;;;8.51;58.17;101373.73;480146;108;930412;-76
2021/10/16 04:35:41;;;;;;;12.94;10.97;;;;;;;8.47;58.24;101369.70;479601;108;922967;-76
2021/10/16 04:36:45;;;;;;;11.73;10.73;;;;;;;8.44;58.30;101364.61;478308;108;922611;-75
2021/10/16 04:37:48;;;;;;;13.51;11.43;;;;;;;8.41;58.40;101362.27;479239;108;923602;-75
2021/10/16 04:38:52;;;;;;;11.91;10.93;;;;;;;8.38;58.47;101363.47;479433;108;930361;-76
2021/10/16 04:39:55;;;;;;;12.78;10.86;;;;;;;8.38;58.51;101365.33;475544;110;922989;-74
2021/10/16 04:41:00;;;;;;;13.93;11.84;;;;;;;8.38;58.53;101361.80;474886;110;923690;-74
2021/10/16 04:42:05;;;;;;;12.77;11.56;;;;;;;8.38;58.52;101367.23;475890;108;923254;-74
2021/10/16 04:43:09;;;;;;;12.28;10.62;;;;;;;8.38;58.55;101369.95;473556;110;922462;-74
2021/10/16 04:44:15;;;;;;;12.53;10.95;;;;;;;8.36;58.59;101376.41;473584;111;922559;-75
2021/10/16 04:45:19;;;;;;;11.55;10.45;;;;;;;8.37;58.63;101385.41;473799;109;923154;-73
2021/10/16 04:46:24;;;;;;;12.17;10.54;;;;;;;8.37;58.69;101382.69;473779;110;923033;-76
2021/10/16 04:47:30;;;;;;;12.49;11.25;;;;;;;8.38;58.72;101378.92;472885;110;922562;-73
2021/10/16 04:48:35;;;;;;;13.06;10.27;;;;;;;8.40;58.79;101378.75;472943;111;922483;-75
2021/10/16 04:49:39;;;;;;;12.11;10.93;;;;;;;8.41;58.81;101375.01;465818;111;923169;-75
2021/10/16 04:50:45;;;;;;;17.66;10.58;;;;;;;8.44;58.79;101382.78;458107;113;923298;-74
2021/10/16 04:51:49;;;;;;;15.75;11.12;;;;;;;8.48;58.79;101384.14;464395;111;922686;-74
2021/10/16 04:52:54;;;;;;;18.34;12.36;;;;;;;8.50;58.69;101382.91;472122;111;923038;-74